CheckWX is a tool to help pilots better visualize weather data.  It is not intended as a substitute for an official pre-flight weather briefing.

10:24:37 UTC

FWKI METAR
Lilongwe International Airport
Lilongwe, Malawi
Current

25 mins ago

FWKI 261000Z VRB02KT 9999 SCT035 26/13 Q1017 NOSIG
Observed
Apr-26 @ 10:00 UTC
Wind
  • Variable at 2 KTS
Visibility
10,000+ meters
Flight Rules
VFR
Cloud Levels
  • Scattered at 3,500' AGL
Temperature
26°C / 79°F
Dewpoint
13°C / 55°F
Humidity
45%
Altimeter
30.03" Hg
Pressure
1016.92 hPa
Previous

1 hour ago

FWKI 260900Z 16003KT 9999 FEW032 25/14 Q1018 NOSIG
Observed
Apr-26 @ 09:00 UTC
Wind
  • 160° at 3 KTS
Visibility
10,000+ meters
Flight Rules
VFR
Cloud Levels
  • Few at 3,200' AGL
Temperature
25°C / 77°F
Dewpoint
14°C / 57°F
Humidity
51%
Altimeter
30.06" Hg
Pressure
1017.92 hPa
Previous

2 hours ago

FWKI 260800Z 13004KT 9999 FEW030 23/13 Q1019 NOSIG
Observed
Apr-26 @ 08:00 UTC
Wind
  • 130° at 4 KTS
Visibility
10,000+ meters
Flight Rules
VFR
Cloud Levels
  • Few at 3,000' AGL
Temperature
23°C / 73°F
Dewpoint
13°C / 55°F
Humidity
53%
Altimeter
30.09" Hg
Pressure
1018.92 hPa